Time;durP1;ratioP1;P1;durP2;ratioP2;P2;SDS_P1;SDS_P2;PMS_P1;PMS_P2;Temp;Humidity;BMP_temperature;BMP_pressure;BME280_temperature;BME280_humidity;BME280_pressure;Samples;Min_cycle;Max_cycle;Signal;HPM_P1;HPM_P2
2022/06/08 00:02:19;;;;;;;10.60;5.60;;;;;;;;;;5034034;28;20478;-47
2022/06/08 00:04:44;;;;;;;9.57;5.85;;;;;;;;;;5033918;28;20033;-46
2022/06/08 00:07:10;;;;;;;8.02;5.80;;;;;;;;;;5034044;28;20034;-47
2022/06/08 00:09:36;;;;;;;8.10;5.78;;;;;;;;;;5033939;28;20104;-45
2022/06/08 00:12:03;;;;;;;10.35;5.68;;;;;;;;;;5034193;28;20029;-50
2022/06/08 00:14:28;;;;;;;9.57;6.72;;;;;;;;;;5034004;28;20025;-47
2022/06/08 00:16:53;;;;;;;14.48;6.90;;;;;;;;;;5033993;28;20493;-46
2022/06/08 00:19:19;;;;;;;10.52;7.07;;;;;;;;;;5033861;28;20447;-47
2022/06/08 00:21:44;;;;;;;13.18;7.95;;;;;;;;;;5033780;28;20033;-46
2022/06/08 00:24:10;;;;;;;15.55;8.15;;;;;;;;;;5033802;28;20028;-47
2022/06/08 00:26:36;;;;;;;15.93;8.35;;;;;;;;;;5032517;28;20036;-47
2022/06/08 00:29:03;;;;;;;16.05;9.20;;;;;;;;;;5033409;28;20060;-48
2022/06/08 00:31:29;;;;;;;16.92;10.15;;;;;;;;;;5033885;28;20036;-47
2022/06/08 00:33:54;;;;;;;13.70;9.27;;;;;;;;;;5033590;28;20768;-49
2022/06/08 00:36:20;;;;;;;14.48;8.88;;;;;;;;;;5033690;28;20069;-46
2022/06/08 00:38:45;;;;;;;13.25;9.15;;;;;;;;;;5033467;28;20033;-47
2022/06/08 00:41:48;;;;;;;15.15;9.30;;;;;;;;;;5033316;28;20060;-47
2022/06/08 00:44:19;;;;;;;18.45;9.82;;;;;;;;;;5033634;28;20049;-49
2022/06/08 00:46:46;;;;;;;15.25;10.48;;;;;;;;;;5033613;28;20029;-46
2022/06/08 00:49:19;;;;;;;15.55;9.80;;;;;;;;;;5033556;28;20049;-47
2022/06/08 00:51:44;;;;;;;16.05;11.20;;;;;;;;;;5033564;28;20381;-46
2022/06/08 00:54:19;;;;;;;16.77;9.75;;;;;;;;;;5033530;28;20034;-48
2022/06/08 00:56:50;;;;;;;16.75;10.30;;;;;;;;;;5033089;28;20021;-47
2022/06/08 00:59:15;;;;;;;17.13;10.50;;;;;;;;;;5033201;28;20550;-47
2022/06/08 01:01:41;;;;;;;17.67;10.82;;;;;;;;;;5033067;28;20061;-48
2022/06/08 01:04:13;;;;;;;19.35;11.05;;;;;;;;;;5033284;28;20032;-49
2022/06/08 01:06:41;;;;;;;20.52;11.23;;;;;;;;;;5033259;28;20167;-49
2022/06/08 01:09:16;;;;;;;19.15;11.38;;;;;;;;;;5032942;28;20029;-50
2022/06/08 01:11:44;;;;;;;18.45;11.05;;;;;;;;;;5033186;28;20049;-50
2022/06/08 01:14:12;;;;;;;21.73;11.30;;;;;;;;;;5032856;28;20026;-51
2022/06/08 01:16:45;;;;;;;16.42;10.80;;;;;;;;;;5032971;28;20029;-52
2022/06/08 01:19:11;;;;;;;17.02;10.10;;;;;;;;;;5033025;28;20377;-51
2022/06/08 01:21:37;;;;;;;19.88;11.50;;;;;;;;;;5033026;28;20029;-51
2022/06/08 01:24:07;;;;;;;17.83;10.93;;;;;;;;;;5032645;28;20603;-50
2022/06/08 01:26:39;;;;;;;;;;;;;;;;;;5033383;28;20116;-50
2022/06/08 01:29:31;;;;;;;18.02;11.00;;;;;;;;;;5032604;28;19956;-49
2022/06/08 01:32:12;;;;;;;29.90;12.00;;;;;;;;;;5032603;28;20029;-50
2022/06/08 01:35:06;;;;;;;20.25;11.48;;;;;;;;;;5032809;28;20033;-50
2022/06/08 01:37:55;;;;;;;16.88;11.10;;;;;;;;;;5032420;28;20503;-52
2022/06/08 01:40:27;;;;;;;17.90;11.63;;;;;;;;;;5011473;28;20474;-51
2022/06/08 01:43:20;;;;;;;22.70;11.50;;;;;;;;;;5012793;28;20382;-50
2022/06/08 01:46:01;;;;;;;19.52;11.70;;;;;;;;;;5012781;28;20108;-51
2022/06/08 01:48:51;;;;;;;19.00;11.93;;;;;;;;;;5013014;28;20029;-49
2022/06/08 01:51:23;;;;;;;;;;;;;;;;;;5013341;28;20071;-52
2022/06/08 01:54:10;;;;;;;18.75;11.35;;;;;;;;;;5011781;28;19913;-51
2022/06/08 01:57:06;;;;;;;20.58;11.85;;;;;;;;;;5012563;28;20022;-51
2022/06/08 02:00:06;;;;;;;19.63;11.45;;;;;;;;;;5012856;28;20037;-53
2022/06/08 02:02:38;;;;;;;20.15;11.50;;;;;;;;;;5012603;28;20123;-51
2022/06/08 02:05:26;;;;;;;17.42;11.70;;;;;;;;;;5012545;28;20452;-54
2022/06/08 02:08:34;;;;;;;18.13;11.13;;;;;;;;;;5004000;28;20123;-54
2022/06/08 02:11:19;;;;;;;16.83;11.30;;;;;;;;;;5016076;28;20374;-49
2022/06/08 02:14:23;;;;;;;18.08;11.13;;;;;;;;;;5016508;28;20026;-50
2022/06/08 02:16:53;;;;;;;19.75;11.15;;;;;;;;;;4936515;29;20036;-49
2022/06/08 02:19:35;;;;;;;17.52;11.10;;;;;;;;;;5003848;28;20049;-48
2022/06/08 02:22:06;;;;;;;19.60;10.85;;;;;;;;;;5016686;28;20021;-50
2022/06/08 02:24:37;;;;;;;19.33;11.27;;;;;;;;;;5016586;28;20096;-52
2022/06/08 02:27:14;;;;;;;17.58;10.25;;;;;;;;;;5016616;28;20424;-51
2022/06/08 02:29:51;;;;;;;15.90;9.52;;;;;;;;;;5016236;28;20528;-51
2022/06/08 02:35:14;;;;;;;14.45;9.00;;;;;;;;;;5016218;28;20088;-51
2022/06/08 02:37:44;;;;;;;14.52;8.98;;;;;;;;;;5014777;28;20508;-50
2022/06/08 02:40:12;;;;;;;;;;;;;;;;;;5025819;28;20049;-46
2022/06/08 02:42:44;;;;;;;12.80;7.90;;;;;;;;;;5036003;28;19996;-47
2022/06/08 02:45:32;;;;;;;11.50;7.97;;;;;;;;;;5036054;28;20107;-51
2022/06/08 02:48:03;;;;;;;12.10;7.88;;;;;;;;;;5035543;28;20199;-55
2022/06/08 02:50:30;;;;;;;9.55;6.78;;;;;;;;;;5035879;28;20025;-50
2022/06/08 02:53:14;;;;;;;8.10;6.03;;;;;;;;;;5035451;28;20026;-52
2022/06/08 02:55:49;;;;;;;12.60;5.57;;;;;;;;;;5035730;28;20099;-53
2022/06/08 02:58:21;;;;;;;7.35;5.25;;;;;;;;;;5035658;28;20035;-54
2022/06/08 03:01:16;;;;;;;8.40;5.47;;;;;;;;;;5035418;28;20061;-50
2022/06/08 03:03:48;;;;;;;6.05;5.07;;;;;;;;;;5032789;28;20091;-53
2022/06/08 03:06:20;;;;;;;8.35;5.18;;;;;;;;;;5035286;28;20062;-51
2022/06/08 03:09:00;;;;;;;6.63;4.57;;;;;;;;;;5035551;28;20432;-53
2022/06/08 03:11:30;;;;;;;6.75;4.60;;;;;;;;;;5035500;28;20025;-50
2022/06/08 03:14:01;;;;;;;6.65;4.43;;;;;;;;;;5035417;28;20120;-53
2022/06/08 03:16:35;;;;;;;9.70;4.80;;;;;;;;;;5035114;28;20056;-52
2022/06/08 03:19:01;;;;;;;4.43;3.95;;;;;;;;;;5034699;28;20480;-53
2022/06/08 03:21:27;;;;;;;4.85;4.35;;;;;;;;;;5035298;28;20113;-51
2022/06/08 03:23:54;;;;;;;5.60;3.92;;;;;;;;;;5034992;28;20053;-49
2022/06/08 03:26:22;;;;;;;4.45;4.03;;;;;;;;;;5035212;28;20025;-52
2022/06/08 03:28:48;;;;;;;4.50;4.10;;;;;;;;;;5034823;28;20029;-55
2022/06/08 03:31:14;;;;;;;7.50;3.90;;;;;;;;;;5035017;28;20026;-54
2022/06/08 03:33:39;;;;;;;4.43;4.00;;;;;;;;;;5034688;28;20025;-53
2022/06/08 03:36:05;;;;;;;5.00;4.07;;;;;;;;;;5035022;28;20022;-51
2022/06/08 03:38:31;;;;;;;5.70;3.47;;;;;;;;;;5034836;28;20022;-55
2022/06/08 03:40:56;;;;;;;4.13;3.70;;;;;;;;;;5034489;28;20098;-50
2022/06/08 03:43:21;;;;;;;4.45;3.95;;;;;;;;;;5034623;28;20030;-54
2022/06/08 03:45:51;;;;;;;6.10;4.13;;;;;;;;;;5034547;28;20027;-53
2022/06/08 03:48:18;;;;;;;6.47;4.13;;;;;;;;;;5034822;28;20035;-52
2022/06/08 03:50:45;;;;;;;4.50;3.70;;;;;;;;;;5034686;28;20041;-54
2022/06/08 03:53:18;;;;;;;4.70;3.70;;;;;;;;;;5034400;28;20473;-52
2022/06/08 03:55:45;;;;;;;5.53;4.90;;;;;;;;;;5034623;28;20120;-48
2022/06/08 03:58:11;;;;;;;6.97;4.70;;;;;;;;;;5034242;28;20029;-49
2022/06/08 04:00:37;;;;;;;6.72;4.18;;;;;;;;;;5034256;28;20483;-53
2022/06/08 04:03:04;;;;;;;7.65;4.38;;;;;;;;;;5034284;28;20029;-50
2022/06/08 04:05:30;;;;;;;5.57;4.53;;;;;;;;;;5034167;28;20084;-49
2022/06/08 04:07:55;;;;;;;7.13;4.95;;;;;;;;;;5016532;28;20033;-49
2022/06/08 04:10:21;;;;;;;6.38;4.47;;;;;;;;;;5034114;28;20067;-54
2022/06/08 04:12:47;;;;;;;8.43;4.55;;;;;;;;;;5034348;28;20075;-50
2022/06/08 04:15:41;;;;;;;4.93;4.00;;;;;;;;;;5033978;28;20377;-50
2022/06/08 04:17:57;;;;;;;5.20;4.45;;;;;;;;;;5033736;28;20033;-52
2022/06/08 04:20:23;;;;;;;3.40;3.10;;;;;;;;;;5033897;28;20033;-49
2022/06/08 04:22:48;;;;;;;8.98;4.20;;;;;;;;;;5034125;28;20029;-52
2022/06/08 04:25:14;;;;;;;8.55;5.00;;;;;;;;;;5033703;28;20033;-55
2022/06/08 04:27:39;;;;;;;5.20;4.03;;;;;;;;;;5033770;28;20025;-53
2022/06/08 04:30:06;;;;;;;11.43;7.25;;;;;;;;;;5033158;28;20021;-54
2022/06/08 04:32:31;;;;;;;6.45;4.20;;;;;;;;;;5033614;28;20495;-49
2022/06/08 04:34:57;;;;;;;10.80;6.60;;;;;;;;;;5033974;28;20025;-54
2022/06/08 04:37:22;;;;;;;8.02;5.00;;;;;;;;;;5033432;28;20110;-51
2022/06/08 04:39:48;;;;;;;9.32;6.60;;;;;;;;;;5033519;28;20049;-47
2022/06/08 04:42:13;;;;;;;16.15;8.32;;;;;;;;;;5033730;28;20372;-49
2022/06/08 04:44:38;;;;;;;12.63;6.95;;;;;;;;;;5033481;28;20034;-53
2022/06/08 04:47:04;;;;;;;10.23;6.45;;;;;;;;;;5033666;28;20031;-51
2022/06/08 04:49:30;;;;;;;13.50;7.65;;;;;;;;;;5033338;28;20067;-52
2022/06/08 04:51:55;;;;;;;11.70;6.97;;;;;;;;;;5033583;28;20029;-49
2022/06/08 04:54:20;;;;;;;15.93;7.68;;;;;;;;;;5033214;28;20413;-52
2022/06/08 04:56:46;;;;;;;8.77;4.82;;;;;;;;;;5033068;28;20033;-50
2022/06/08 04:59:11;;;;;;;5.35;3.10;;;;;;;;;;5033113;28;20035;-49
2022/06/08 05:01:37;;;;;;;9.25;4.78;;;;;;;;;;5033105;28;20060;-49
2022/06/08 05:04:02;;;;;;;8.88;4.50;;;;;;;;;;5033008;28;20022;-52
2022/06/08 05:06:27;;;;;;;12.10;4.63;;;;;;;;;;5032926;28;20108;-52
2022/06/08 05:08:53;;;;;;;5.63;3.92;;;;;;;;;;5032916;28;20041;-51
2022/06/08 05:11:19;;;;;;;5.30;3.80;;;;;;;;;;5033087;28;20018;-51
2022/06/08 05:13:46;;;;;;;4.22;3.38;;;;;;;;;;5033185;28;20552;-55
2022/06/08 05:16:12;;;;;;;4.13;3.38;;;;;;;;;;5033248;28;20041;-52
2022/06/08 05:18:38;;;;;;;4.68;3.63;;;;;;;;;;5032755;28;20037;-53
2022/06/08 05:21:03;;;;;;;6.20;3.15;;;;;;;;;;5032844;28;20021;-54
2022/06/08 05:23:36;;;;;;;3.15;2.88;;;;;;;;;;5032742;28;20453;-48
2022/06/08 05:26:02;;;;;;;5.68;3.47;;;;;;;;;;5033041;28;20041;-54
2022/06/08 05:28:28;;;;;;;4.28;3.75;;;;;;;;;;5033039;28;20037;-52
2022/06/08 05:30:56;;;;;;;4.95;4.25;;;;;;;;;;5032625;28;20025;-52
2022/06/08 05:33:27;;;;;;;9.80;5.15;;;;;;;;;;5032977;28;20030;-54
2022/06/08 05:35:53;;;;;;;15.13;8.15;;;;;;;;;;5015406;28;20021;-51
2022/06/08 05:38:19;;;;;;;4.03;3.47;;;;;;;;;;5032731;28;20040;-53
2022/06/08 05:40:44;;;;;;;3.47;2.83;;;;;;;;;;5032357;28;20521;-47
2022/06/08 05:43:13;;;;;;;7.75;3.95;;;;;;;;;;5032573;28;20052;-47
2022/06/08 05:45:39;;;;;;;6.78;4.18;;;;;;;;;;5032499;28;20485;-52
2022/06/08 05:48:06;;;;;;;19.85;7.32;;;;;;;;;;5032758;28;20064;-52
2022/06/08 05:50:32;;;;;;;3.78;3.38;;;;;;;;;;5032426;28;20512;-54
2022/06/08 05:52:58;;;;;;;4.70;4.25;;;;;;;;;;5032428;28;20033;-54
2022/06/08 05:55:24;;;;;;;5.75;4.13;;;;;;;;;;5032663;28;20033;-54
2022/06/08 05:57:51;;;;;;;4.50;4.10;;;;;;;;;;5032344;28;20030;-53
2022/06/08 06:00:20;;;;;;;5.88;4.75;;;;;;;;;;5032357;28;20037;-49
2022/06/08 06:02:46;;;;;;;7.33;3.77;;;;;;;;;;5032317;28;20423;-50
2022/06/08 06:05:13;;;;;;;3.28;2.88;;;;;;;;;;5032272;28;20049;-49
2022/06/08 06:07:40;;;;;;;7.45;3.08;;;;;;;;;;5032523;28;20378;-48
2022/06/08 06:10:06;;;;;;;5.22;3.80;;;;;;;;;;5032219;28;20469;-51
2022/06/08 06:12:32;;;;;;;6.15;4.03;;;;;;;;;;5030812;28;20071;-51
2022/06/08 06:15:01;;;;;;;4.40;4.00;;;;;;;;;;5030696;28;20033;-56
2022/06/08 06:17:27;;;;;;;4.80;3.97;;;;;;;;;;5030458;28;20084;-51
2022/06/08 06:19:52;;;;;;;4.45;3.55;;;;;;;;;;5030312;28;20026;-50
2022/06/08 06:22:19;;;;;;;2.95;2.65;;;;;;;;;;5032006;28;20362;-54
2022/06/08 06:24:44;;;;;;;4.60;3.30;;;;;;;;;;5032074;28;20087;-50
2022/06/08 06:27:10;;;;;;;3.40;3.10;;;;;;;;;;5031616;28;20469;-47
2022/06/08 06:29:35;;;;;;;4.15;3.45;;;;;;;;;;5031400;28;20026;-55
2022/06/08 06:32:24;;;;;;;5.53;3.80;;;;;;;;;;5032083;28;20033;-49
2022/06/08 06:34:50;;;;;;;4.97;3.58;;;;;;;;;;5032099;28;20033;-52
2022/06/08 06:37:15;;;;;;;7.80;3.60;;;;;;;;;;5032149;28;20033;-53
2022/06/08 06:39:41;;;;;;;3.50;3.08;;;;;;;;;;5010808;28;20069;-55
2022/06/08 06:42:16;;;;;;;5.53;3.55;;;;;;;;;;5012097;28;20057;-51
2022/06/08 06:44:42;;;;;;;3.80;3.13;;;;;;;;;;5012446;28;20104;-51
2022/06/08 06:47:07;;;;;;;3.75;3.40;;;;;;;;;;5012226;28;20478;-50
2022/06/08 06:49:33;;;;;;;4.20;3.55;;;;;;;;;;5012081;28;20022;-53
2022/06/08 06:51:58;;;;;;;3.08;2.83;;;;;;;;;;5012173;28;20131;-50
2022/06/08 06:54:24;;;;;;;5.80;3.10;;;;;;;;;;5015030;28;20477;-49
2022/06/08 06:56:49;;;;;;;4.15;3.00;;;;;;;;;;5015641;28;20029;-55
2022/06/08 06:59:15;;;;;;;3.47;3.10;;;;;;;;;;5016015;28;20026;-52
2022/06/08 07:01:41;;;;;;;3.13;2.63;;;;;;;;;;5015658;28;20147;-54
2022/06/08 07:04:06;;;;;;;3.47;3.15;;;;;;;;;;5015957;28;20021;-50
2022/06/08 07:06:32;;;;;;;4.55;2.92;;;;;;;;;;5015860;28;20040;-53
2022/06/08 07:09:00;;;;;;;3.58;2.80;;;;;;;;;;5015727;28;20084;-54
2022/06/08 07:11:35;;;;;;;4.50;3.03;;;;;;;;;;5015697;28;20096;-54
2022/06/08 07:14:03;;;;;;;3.35;2.58;;;;;;;;;;5015723;28;20105;-54
2022/06/08 07:16:29;;;;;;;2.83;2.60;;;;;;;;;;5015332;28;20482;-53
2022/06/08 07:18:55;;;;;;;2.70;2.50;;;;;;;;;;5015556;28;20026;-50
2022/06/08 07:21:20;;;;;;;3.50;2.60;;;;;;;;;;5015611;28;20414;-53
2022/06/08 07:23:46;;;;;;;5.57;3.00;;;;;;;;;;5015493;28;20088;-53
2022/06/08 07:26:12;;;;;;;2.88;2.67;;;;;;;;;;5015474;28;20477;-53
2022/06/08 07:28:38;;;;;;;3.22;2.90;;;;;;;;;;5015506;28;20033;-51
2022/06/08 07:31:04;;;;;;;3.40;3.10;;;;;;;;;;5015034;28;20037;-53
2022/06/08 07:33:30;;;;;;;4.88;2.95;;;;;;;;;;5015360;28;20038;-52
2022/06/08 07:35:57;;;;;;;5.63;3.40;;;;;;;;;;5014965;28;20026;-54
2022/06/08 07:38:22;;;;;;;3.88;3.03;;;;;;;;;;5015263;28;20068;-55
2022/06/08 07:40:48;;;;;;;3.75;3.13;;;;;;;;;;5029419;28;20045;-52
2022/06/08 07:43:13;;;;;;;4.45;3.20;;;;;;;;;;5034969;28;20032;-53
2022/06/08 07:45:39;;;;;;;5.72;2.83;;;;;;;;;;5034667;28;20087;-51
2022/06/08 07:50:49;;;;;;;8.68;3.85;;;;;;;;;;5034669;28;20060;-53
2022/06/08 07:53:15;;;;;;;4.93;3.10;;;;;;;;;;5034529;28;20053;-50
2022/06/08 07:55:41;;;;;;;8.75;3.28;;;;;;;;;;5034330;28;20069;-49
2022/06/08 07:58:07;;;;;;;7.90;3.38;;;;;;;;;;5034228;28;20051;-50
2022/06/08 08:00:32;;;;;;;4.22;3.33;;;;;;;;;;5034586;28;20385;-53
2022/06/08 08:02:58;;;;;;;3.92;2.97;;;;;;;;;;5034164;28;20535;-50
2022/06/08 08:05:23;;;;;;;6.00;3.42;;;;;;;;;;5033217;28;20032;-54
2022/06/08 08:07:50;;;;;;;6.82;3.80;;;;;;;;;;5034367;28;20037;-49
2022/06/08 08:10:19;;;;;;;4.50;3.30;;;;;;;;;;5034118;28;20029;-51
2022/06/08 08:12:46;;;;;;;3.95;3.35;;;;;;;;;;5034269;28;20029;-53
2022/06/08 08:15:12;;;;;;;11.77;6.00;;;;;;;;;;5034009;28;20037;-49
2022/06/08 08:17:38;;;;;;;4.38;3.35;;;;;;;;;;5033864;28;20029;-49
2022/06/08 08:20:06;;;;;;;5.88;3.40;;;;;;;;;;5033815;28;20075;-47
2022/06/08 08:22:31;;;;;;;3.80;3.35;;;;;;;;;;5033613;28;20032;-49
2022/06/08 08:24:57;;;;;;;7.75;3.75;;;;;;;;;;5029089;28;20026;-51
2022/06/08 08:27:22;;;;;;;7.53;3.90;;;;;;;;;;5033138;28;20679;-49
2022/06/08 08:29:48;;;;;;;6.93;3.90;;;;;;;;;;5033391;28;20026;-53
2022/06/08 08:32:13;;;;;;;4.63;3.80;;;;;;;;;;5033186;28;20464;-54
2022/06/08 08:34:38;;;;;;;7.22;4.03;;;;;;;;;;5032766;28;20072;-49
2022/06/08 08:37:04;;;;;;;4.85;3.83;;;;;;;;;;5032961;28;20060;-53
2022/06/08 08:39:30;;;;;;;4.60;3.80;;;;;;;;;;5032733;28;20477;-52
2022/06/08 08:44:42;;;;;;;4.13;3.65;;;;;;;;;;5033195;28;20067;-52
2022/06/08 08:47:40;;;;;;;3.67;3.33;;;;;;;;;;5033525;28;20468;-53
2022/06/08 08:50:22;;;;;;;3.47;3.17;;;;;;;;;;5033287;28;20037;-47
2022/06/08 08:53:02;;;;;;;5.35;3.03;;;;;;;;;;5033086;28;20025;-51
2022/06/08 08:55:32;;;;;;;2.92;2.63;;;;;;;;;;5033544;28;20144;-47
2022/06/08 08:58:04;;;;;;;3.38;3.08;;;;;;;;;;5015427;28;20068;-49
2022/06/08 09:00:49;;;;;;;6.25;3.30;;;;;;;;;;5033013;28;20033;-48
2022/06/08 09:03:20;;;;;;;4.80;3.22;;;;;;;;;;5031623;28;20116;-49
2022/06/08 09:05:48;;;;;;;5.78;3.28;;;;;;;;;;5031589;28;20033;-49
2022/06/08 09:08:15;;;;;;;3.40;3.10;;;;;;;;;;5031405;28;20378;-49
2022/06/08 09:10:41;;;;;;;3.83;2.80;;;;;;;;;;5031451;28;20025;-51
2022/06/08 09:13:11;;;;;;;3.35;2.70;;;;;;;;;;5031693;28;20033;-48
2022/06/08 09:15:44;;;;;;;3.55;3.25;;;;;;;;;;5031304;28;20060;-54
2022/06/08 09:18:29;;;;;;;3.38;3.08;;;;;;;;;;5031417;28;20107;-55
2022/06/08 09:20:54;;;;;;;3.35;3.03;;;;;;;;;;5031320;28;20538;-55
2022/06/08 09:23:41;;;;;;;3.80;2.95;;;;;;;;;;5031203;28;20113;-50
2022/06/08 09:26:13;;;;;;;3.90;3.50;;;;;;;;;;5031091;28;20037;-49
2022/06/08 09:28:41;;;;;;;3.40;3.10;;;;;;;;;;5031176;28;20083;-48
2022/06/08 09:31:23;;;;;;;3.63;3.30;;;;;;;;;;5031011;28;20598;-48
2022/06/08 09:33:49;;;;;;;6.15;3.70;;;;;;;;;;5031247;28;20056;-48
2022/06/08 09:36:27;;;;;;;6.10;3.85;;;;;;;;;;5031157;28;20025;-51
2022/06/08 09:38:54;;;;;;;7.70;3.75;;;;;;;;;;5031266;28;20040;-51
2022/06/08 09:41:44;;;;;;;3.55;3.25;;;;;;;;;;5030030;28;20087;-49
2022/06/08 09:44:54;;;;;;;5.15;3.75;;;;;;;;;;5030820;28;20029;-56
2022/06/08 09:53:44;;;;;;;5.55;3.40;;;;;;;;;;5031018;28;20048;-46
2022/06/08 09:56:18;;;;;;;3.38;3.10;;;;;;;;;;5030249;28;20056;-45
2022/06/08 09:58:52;;;;;;;8.23;4.13;;;;;;;;;;5030351;28;20033;-47
2022/06/08 10:01:27;;;;;;;4.13;3.13;;;;;;;;;;5030929;28;20357;-46
2022/06/08 10:04:17;;;;;;;7.78;3.20;;;;;;;;;;5030563;28;20489;-51
2022/06/08 10:06:47;;;;;;;4.57;3.25;;;;;;;;;;5031050;28;20119;-46
2022/06/08 10:09:40;;;;;;;3.83;3.53;;;;;;;;;;5030674;28;20473;-45
2022/06/08 10:12:12;;;;;;;4.28;3.88;;;;;;;;;;5030592;28;20473;-50
2022/06/08 10:14:56;;;;;;;4.95;4.10;;;;;;;;;;5030634;28;20025;-52
2022/06/08 10:17:30;;;;;;;4.88;4.20;;;;;;;;;;5029780;28;20083;-48
2022/06/08 10:20:01;;;;;;;5.13;4.63;;;;;;;;;;5030679;28;20105;-52
2022/06/08 10:22:36;;;;;;;5.10;4.70;;;;;;;;;;5030862;28;20018;-52
2022/06/08 10:25:07;;;;;;;6.82;5.00;;;;;;;;;;5030679;28;20029;-50
2022/06/08 10:27:46;;;;;;;17.45;5.70;;;;;;;;;;5030768;28;20033;-48
2022/06/08 10:30:24;;;;;;;7.60;5.63;;;;;;;;;;5034476;28;20112;-46
2022/06/08 10:32:59;;;;;;;5.80;5.10;;;;;;;;;;5034391;28;20026;-47
2022/06/08 10:35:35;;;;;;;6.47;5.82;;;;;;;;;;5034363;28;20029;-52
2022/06/08 10:38:01;;;;;;;5.55;5.05;;;;;;;;;;5034246;28;20036;-51
2022/06/08 10:40:36;;;;;;;6.75;5.32;;;;;;;;;;5034246;28;20038;-47
2022/06/08 10:43:03;;;;;;;5.88;5.35;;;;;;;;;;5034148;28;20028;-46
2022/06/08 10:45:28;;;;;;;5.43;4.93;;;;;;;;;;5034537;28;20507;-51
2022/06/08 10:48:15;;;;;;;10.30;5.57;;;;;;;;;;5033436;28;20112;-49
2022/06/08 10:50:48;;;;;;;5.78;4.43;;;;;;;;;;5034077;28;20025;-49
2022/06/08 10:56:32;;;;;;;5.93;5.15;;;;;;;;;;5034082;28;20040;-46
2022/06/08 10:59:03;;;;;;;5.30;4.82;;;;;;;;;;5033696;28;20087;-47
2022/06/08 11:02:06;;;;;;;6.13;4.90;;;;;;;;;;5033946;28;20112;-47
2022/06/08 11:04:32;;;;;;;5.82;5.00;;;;;;;;;;5033915;28;20030;-49
2022/06/08 11:07:14;;;;;;;5.50;5.00;;;;;;;;;;5033919;28;20380;-45
2022/06/08 11:09:39;;;;;;;7.32;4.78;;;;;;;;;;5033634;28;20116;-52
2022/06/08 11:12:22;;;;;;;7.10;4.75;;;;;;;;;;5033844;28;20064;-49
2022/06/08 11:14:47;;;;;;;5.85;5.10;;;;;;;;;;5033380;28;20036;-51
2022/06/08 11:17:21;;;;;;;7.07;5.00;;;;;;;;;;5033711;28;20112;-50
2022/06/08 11:19:49;;;;;;;6.78;4.95;;;;;;;;;;5033453;28;20294;-48
2022/06/08 11:22:23;;;;;;;6.95;5.13;;;;;;;;;;5016252;28;20026;-52
2022/06/08 11:24:52;;;;;;;8.90;4.97;;;;;;;;;;5032975;28;20592;-56
2022/06/08 11:27:20;;;;;;;6.53;4.75;;;;;;;;;;5032536;28;20121;-50
2022/06/08 11:29:51;;;;;;;6.15;4.75;;;;;;;;;;5032783;28;20025;-48
2022/06/08 11:33:03;;;;;;;10.48;4.75;;;;;;;;;;5033039;28;20544;-51
2022/06/08 11:35:56;;;;;;;6.57;4.28;;;;;;;;;;5009443;28;20041;-53
2022/06/08 11:38:40;;;;;;;5.40;4.90;;;;;;;;;;5033330;28;20037;-51
2022/06/08 11:41:21;;;;;;;5.70;4.72;;;;;;;;;;5032753;28;20041;-50
2022/06/08 11:43:49;;;;;;;5.18;4.50;;;;;;;;;;5032843;28;20021;-52
2022/06/08 11:46:30;;;;;;;6.38;4.45;;;;;;;;;;5033111;28;20037;-52
2022/06/08 11:48:56;;;;;;;4.25;3.95;;;;;;;;;;5014988;28;20087;-50
2022/06/08 11:51:29;;;;;;;5.53;4.20;;;;;;;;;;5032934;28;20658;-51
2022/06/08 11:53:58;;;;;;;6.43;3.72;;;;;;;;;;5032539;28;20540;-51
2022/06/08 11:56:29;;;;;;;5.43;3.80;;;;;;;;;;5032978;28;20041;-50
2022/06/08 11:58:57;;;;;;;4.25;3.13;;;;;;;;;;5032648;28;20033;-51
2022/06/08 12:01:46;;;;;;;4.32;3.67;;;;;;;;;;5032709;28;20049;-52
2022/06/08 12:04:15;;;;;;;6.80;3.63;;;;;;;;;;5032080;28;20108;-47
2022/06/08 12:06:42;;;;;;;;;;;;;;;;;;5032986;28;20029;-48
2022/06/08 12:09:14;;;;;;;8.98;3.45;;;;;;;;;;5032635;28;19917;-52
2022/06/08 12:11:44;;;;;;;3.80;3.35;;;;;;;;;;5032717;28;20030;-51
2022/06/08 12:14:21;;;;;;;3.80;3.50;;;;;;;;;;5032206;28;20033;-48
2022/06/08 12:16:58;;;;;;;4.05;3.70;;;;;;;;;;5032510;28;20026;-51
2022/06/08 12:19:25;;;;;;;6.35;3.47;;;;;;;;;;5032515;28;20029;-49
2022/06/08 12:22:09;;;;;;;4.32;3.00;;;;;;;;;;5032142;28;20036;-46
2022/06/08 12:24:34;;;;;;;2.80;2.60;;;;;;;;;;5032009;28;20034;-49
2022/06/08 12:27:02;;;;;;;2.95;2.63;;;;;;;;;;5032412;28;20032;-50
2022/06/08 12:29:55;;;;;;;3.08;2.80;;;;;;;;;;5032090;28;20473;-52
2022/06/08 12:32:21;;;;;;;2.78;2.58;;;;;;;;;;5028062;28;20124;-53
2022/06/08 12:35:00;;;;;;;2.70;2.50;;;;;;;;;;5032108;28;20742;-52
2022/06/08 12:37:26;;;;;;;3.97;2.80;;;;;;;;;;5031546;28;20033;-47
2022/06/08 12:39:53;;;;;;;3.13;2.70;;;;;;;;;;5031576;28;20506;-52
2022/06/08 12:42:30;;;;;;;2.92;2.72;;;;;;;;;;5031851;28;20033;-53
2022/06/08 12:44:58;;;;;;;131.63;118.05;;;;;;;;;;5031732;28;20032;-49
2022/06/08 12:47:28;;;;;;;3.58;2.58;;;;;;;;;;5031674;28;20029;-54
2022/06/08 12:50:17;;;;;;;;;;;;;;;;;;5032297;28;20029;-54
2022/06/08 12:52:43;;;;;;;3.72;3.00;;;;;;;;;;5018500;28;20004;-54
2022/06/08 12:55:17;;;;;;;5.22;3.03;;;;;;;;;;5031891;28;20034;-54
2022/06/08 12:57:42;;;;;;;4.22;2.85;;;;;;;;;;5013357;28;20039;-51
2022/06/08 13:00:09;;;;;;;3.75;2.90;;;;;;;;;;5031227;28;20021;-53
2022/06/08 13:02:38;;;;;;;5.80;3.15;;;;;;;;;;5031153;28;20040;-54
2022/06/08 13:05:14;;;;;;;3.17;2.92;;;;;;;;;;5031513;28;20030;-54
2022/06/08 13:07:40;;;;;;;6.28;3.33;;;;;;;;;;5031489;28;20061;-51
2022/06/08 13:10:06;;;;;;;5.53;2.88;;;;;;;;;;5031532;28;20436;-57
2022/06/08 13:12:36;;;;;;;3.25;2.95;;;;;;;;;;5031462;28;20556;-57
2022/06/08 13:15:01;;;;;;;4.38;3.20;;;;;;;;;;5031011;28;20029;-48
2022/06/08 13:17:28;;;;;;;3.13;2.92;;;;;;;;;;5030917;28;20116;-50
2022/06/08 13:19:56;;;;;;;3.42;3.10;;;;;;;;;;5031379;28;20033;-55
2022/06/08 13:22:25;;;;;;;7.35;3.00;;;;;;;;;;5031021;28;20091;-49
2022/06/08 13:24:50;;;;;;;4.38;3.08;;;;;;;;;;5031397;28;20092;-49
2022/06/08 13:27:16;;;;;;;7.82;3.38;;;;;;;;;;5031102;28;20526;-54
2022/06/08 13:29:42;;;;;;;12.98;10.23;;;;;;;;;;5031028;28;20069;-55
2022/06/08 13:32:17;;;;;;;3.45;3.00;;;;;;;;;;5031116;28;20029;-57
2022/06/08 13:34:43;;;;;;;4.68;2.95;;;;;;;;;;5031270;28;20041;-50
2022/06/08 13:37:25;;;;;;;7.40;3.53;;;;;;;;;;5030824;28;20479;-53
2022/06/08 13:39:51;;;;;;;5.75;5.18;;;;;;;;;;5030530;28;20091;-53
2022/06/08 13:42:18;;;;;;;110.78;99.60;;;;;;;;;;5030503;28;20033;-49
2022/06/08 13:44:50;;;;;;;3.55;3.25;;;;;;;;;;5031016;28;20072;-55
2022/06/08 13:47:18;;;;;;;2.63;2.10;;;;;;;;;;5030905;28;20067;-51
2022/06/08 13:49:52;;;;;;;2.57;2.10;;;;;;;;;;5030818;28;20033;-53
2022/06/08 13:52:24;;;;;;;3.60;3.22;;;;;;;;;;5030650;28;20044;-55
2022/06/08 13:54:55;;;;;;;2.17;2.00;;;;;;;;;;5030730;28;20061;-53
2022/06/08 13:57:23;;;;;;;2.22;2.03;;;;;;;;;;5030843;28;20033;-55
2022/06/08 13:59:49;;;;;;;1.90;1.80;;;;;;;;;;5031120;28;20022;-53
2022/06/08 14:02:32;;;;;;;2.17;1.98;;;;;;;;;;5031566;28;20036;-54
2022/06/08 14:04:58;;;;;;;2.30;2.10;;;;;;;;;;5035185;28;20033;-53
2022/06/08 14:13:11;;;;;;;2.65;2.45;;;;;;;;;;5034714;28;20103;-51
2022/06/08 14:15:37;;;;;;;2.40;2.20;;;;;;;;;;5034761;28;20500;-50
2022/06/08 14:18:03;;;;;;;3.45;2.00;;;;;;;;;;5034692;28;20046;-55
2022/06/08 14:20:38;;;;;;;5.47;2.40;;;;;;;;;;5034060;28;20039;-48
2022/06/08 14:23:06;;;;;;;5.15;2.35;;;;;;;;;;5034359;28;20025;-52
2022/06/08 14:25:33;;;;;;;3.85;2.60;;;;;;;;;;5034533;28;20065;-53
2022/06/08 14:27:59;;;;;;;3.50;2.50;;;;;;;;;;5034314;28;20481;-51
2022/06/08 14:30:24;;;;;;;2.22;2.10;;;;;;;;;;5034480;28;20052;-54
2022/06/08 14:32:56;;;;;;;2.50;2.30;;;;;;;;;;5034656;28;20025;-48
2022/06/08 14:35:32;;;;;;;3.45;2.30;;;;;;;;;;5034149;28;20025;-51
2022/06/08 14:37:59;;;;;;;2.42;2.13;;;;;;;;;;5034261;28;20582;-53
2022/06/08 14:40:30;;;;;;;2.33;2.10;;;;;;;;;;5034137;28;20049;-51
2022/06/08 14:42:57;;;;;;;2.40;2.20;;;;;;;;;;5034284;28;20034;-48
2022/06/08 14:45:23;;;;;;;2.63;2.05;;;;;;;;;;5034350;28;20536;-52
2022/06/08 14:47:50;;;;;;;5.80;2.25;;;;;;;;;;5034104;28;20678;-45
2022/06/08 14:50:18;;;;;;;2.60;2.40;;;;;;;;;;5034315;28;20531;-50
2022/06/08 14:52:45;;;;;;;2.55;2.35;;;;;;;;;;5034031;28;20032;-45
2022/06/08 14:58:00;;;;;;;2.50;2.30;;;;;;;;;;5033893;28;20095;-49
2022/06/08 15:00:26;;;;;;;4.63;2.30;;;;;;;;;;5034083;28;20029;-51
2022/06/08 15:02:51;;;;;;;4.35;2.55;;;;;;;;;;5033949;28;20029;-47
2022/06/08 15:05:18;;;;;;;2.30;2.10;;;;;;;;;;5033748;28;20485;-49
2022/06/08 15:07:44;;;;;;;2.83;2.15;;;;;;;;;;5033830;28;20035;-51
2022/06/08 15:10:10;;;;;;;2.55;2.35;;;;;;;;;;5033964;28;20400;-49
2022/06/08 15:12:38;;;;;;;2.50;2.30;;;;;;;;;;5033366;28;20465;-49
2022/06/08 15:15:22;;;;;;;2.53;2.20;;;;;;;;;;5032860;28;20556;-50
2022/06/08 15:17:50;;;;;;;2.83;1.92;;;;;;;;;;5032758;28;20028;-49
2022/06/08 15:20:20;;;;;;;2.92;2.28;;;;;;;;;;5014059;28;20033;-48
2022/06/08 15:22:49;;;;;;;3.78;2.30;;;;;;;;;;5033333;28;20037;-48
2022/06/08 15:25:19;;;;;;;3.43;2.50;;;;;;;;;;5033478;28;20033;-49
2022/06/08 15:27:55;;;;;;;4.18;2.42;;;;;;;;;;5033652;28;20040;-48
2022/06/08 15:30:27;;;;;;;5.40;2.50;;;;;;;;;;5033413;28;20056;-47